sensor_id;sensor_type;location;lat;lon;timestamp;P1;durP1;ratioP1;P2;durP2;ratioP2
77938;SDS011;67136;47.546;21.630;2023-07-22T00:02:11;6.65;;;4.60;;
77938;SDS011;67136;47.546;21.630;2023-07-22T00:05:14;6.87;;;4.90;;
77938;SDS011;67136;47.546;21.630;2023-07-22T00:08:17;9.10;;;5.20;;
77938;SDS011;67136;47.546;21.630;2023-07-22T00:11:20;8.23;;;5.35;;
77938;SDS011;67136;47.546;21.630;2023-07-22T00:14:23;6.97;;;4.30;;
77938;SDS011;67136;47.546;21.630;2023-07-22T00:17:34;7.47;;;4.60;;
77938;SDS011;67136;47.546;21.630;2023-07-22T00:20:36;8.57;;;4.23;;
77938;SDS011;67136;47.546;21.630;2023-07-22T00:23:40;6.65;;;4.55;;
77938;SDS011;67136;47.546;21.630;2023-07-22T00:26:42;6.62;;;4.18;;
77938;SDS011;67136;47.546;21.630;2023-07-22T00:29:46;7.05;;;4.68;;
77938;SDS011;67136;47.546;21.630;2023-07-22T00:32:52;8.52;;;4.22;;
77938;SDS011;67136;47.546;21.630;2023-07-22T00:35:55;8.50;;;4.83;;
77938;SDS011;67136;47.546;21.630;2023-07-22T00:38:58;10.77;;;5.10;;
77938;SDS011;67136;47.546;21.630;2023-07-22T00:42:01;7.37;;;4.60;;
77938;SDS011;67136;47.546;21.630;2023-07-22T00:45:04;6.75;;;4.57;;
77938;SDS011;67136;47.546;21.630;2023-07-22T00:48:08;8.00;;;4.10;;
77938;SDS011;67136;47.546;21.630;2023-07-22T00:51:12;9.00;;;4.50;;
77938;SDS011;67136;47.546;21.630;2023-07-22T00:54:14;7.20;;;4.90;;
77938;SDS011;67136;47.546;21.630;2023-07-22T00:57:18;8.25;;;5.10;;
77938;SDS011;67136;47.546;21.630;2023-07-22T01:00:21;8.65;;;4.78;;
77938;SDS011;67136;47.546;21.630;2023-07-22T01:03:24;6.82;;;5.07;;
77938;SDS011;67136;47.546;21.630;2023-07-22T01:06:33;13.20;;;5.13;;
77938;SDS011;67136;47.546;21.630;2023-07-22T01:09:37;9.50;;;5.15;;
77938;SDS011;67136;47.546;21.630;2023-07-22T01:12:44;6.95;;;4.87;;
77938;SDS011;67136;47.546;21.630;2023-07-22T01:15:47;8.48;;;5.10;;
77938;SDS011;67136;47.546;21.630;2023-07-22T01:18:51;7.95;;;5.03;;
77938;SDS011;67136;47.546;21.630;2023-07-22T01:22:04;5.87;;;4.73;;
77938;SDS011;67136;47.546;21.630;2023-07-22T01:25:10;10.25;;;4.90;;
77938;SDS011;67136;47.546;21.630;2023-07-22T01:28:13;6.82;;;5.20;;
77938;SDS011;67136;47.546;21.630;2023-07-22T01:31:16;7.57;;;5.30;;
77938;SDS011;67136;47.546;21.630;2023-07-22T01:34:22;8.85;;;5.00;;
77938;SDS011;67136;47.546;21.630;2023-07-22T01:37:27;6.57;;;4.97;;
77938;SDS011;67136;47.546;21.630;2023-07-22T01:40:30;11.15;;;6.12;;
77938;SDS011;67136;47.546;21.630;2023-07-22T01:43:33;8.07;;;6.25;;
77938;SDS011;67136;47.546;21.630;2023-07-22T01:46:36;10.52;;;5.87;;
77938;SDS011;67136;47.546;21.630;2023-07-22T01:49:39;8.15;;;6.57;;
77938;SDS011;67136;47.546;21.630;2023-07-22T01:52:46;9.83;;;6.97;;
77938;SDS011;67136;47.546;21.630;2023-07-22T01:55:50;9.77;;;6.53;;
77938;SDS011;67136;47.546;21.630;2023-07-22T01:58:53;10.40;;;6.20;;
77938;SDS011;67136;47.546;21.630;2023-07-22T02:01:56;10.00;;;6.43;;
77938;SDS011;67136;47.546;21.630;2023-07-22T02:04:59;10.73;;;5.87;;
77938;SDS011;67136;47.546;21.630;2023-07-22T02:08:02;10.63;;;6.03;;
77938;SDS011;67136;47.546;21.630;2023-07-22T02:11:06;9.48;;;6.50;;
77938;SDS011;67136;47.546;21.630;2023-07-22T02:14:11;9.13;;;6.40;;
77938;SDS011;67136;47.546;21.630;2023-07-22T02:17:13;8.63;;;6.15;;
77938;SDS011;67136;47.546;21.630;2023-07-22T02:20:16;8.65;;;6.82;;
77938;SDS011;67136;47.546;21.630;2023-07-22T02:23:19;8.20;;;6.23;;
77938;SDS011;67136;47.546;21.630;2023-07-22T02:26:26;9.82;;;6.20;;
77938;SDS011;67136;47.546;21.630;2023-07-22T02:29:29;11.00;;;6.40;;
77938;SDS011;67136;47.546;21.630;2023-07-22T02:32:33;10.38;;;6.32;;
77938;SDS011;67136;47.546;21.630;2023-07-22T02:35:36;7.97;;;6.10;;
77938;SDS011;67136;47.546;21.630;2023-07-22T02:38:39;7.93;;;5.90;;
77938;SDS011;67136;47.546;21.630;2023-07-22T02:41:41;11.82;;;6.10;;
77938;SDS011;67136;47.546;21.630;2023-07-22T02:44:44;9.25;;;6.47;;
77938;SDS011;67136;47.546;21.630;2023-07-22T02:47:47;9.07;;;6.20;;
77938;SDS011;67136;47.546;21.630;2023-07-22T02:50:49;8.30;;;6.07;;
77938;SDS011;67136;47.546;21.630;2023-07-22T02:53:52;8.10;;;6.13;;
77938;SDS011;67136;47.546;21.630;2023-07-22T02:56:58;10.38;;;5.93;;
77938;SDS011;67136;47.546;21.630;2023-07-22T03:00:01;10.98;;;6.30;;
77938;SDS011;67136;47.546;21.630;2023-07-22T03:03:09;12.55;;;5.80;;
77938;SDS011;67136;47.546;21.630;2023-07-22T03:06:18;7.97;;;6.07;;
77938;SDS011;67136;47.546;21.630;2023-07-22T03:09:22;8.57;;;6.10;;
77938;SDS011;67136;47.546;21.630;2023-07-22T03:12:25;8.35;;;5.28;;
77938;SDS011;67136;47.546;21.630;2023-07-22T03:15:27;8.65;;;6.22;;
77938;SDS011;67136;47.546;21.630;2023-07-22T03:18:31;8.63;;;5.75;;
77938;SDS011;67136;47.546;21.630;2023-07-22T03:21:36;9.18;;;5.90;;
77938;SDS011;67136;47.546;21.630;2023-07-22T03:24:39;8.20;;;6.30;;
77938;SDS011;67136;47.546;21.630;2023-07-22T03:27:42;7.20;;;5.97;;
77938;SDS011;67136;47.546;21.630;2023-07-22T03:30:46;11.38;;;6.20;;
77938;SDS011;67136;47.546;21.630;2023-07-22T03:33:48;11.25;;;6.65;;
77938;SDS011;67136;47.546;21.630;2023-07-22T03:36:55;11.25;;;6.25;;
77938;SDS011;67136;47.546;21.630;2023-07-22T03:39:58;10.00;;;7.37;;
77938;SDS011;67136;47.546;21.630;2023-07-22T03:43:00;9.80;;;6.78;;
77938;SDS011;67136;47.546;21.630;2023-07-22T03:46:03;9.77;;;6.85;;
77938;SDS011;67136;47.546;21.630;2023-07-22T03:49:08;9.95;;;7.68;;
77938;SDS011;67136;47.546;21.630;2023-07-22T03:52:12;9.13;;;7.35;;
77938;SDS011;67136;47.546;21.630;2023-07-22T03:55:20;12.53;;;6.83;;
77938;SDS011;67136;47.546;21.630;2023-07-22T03:58:23;9.88;;;7.47;;
77938;SDS011;67136;47.546;21.630;2023-07-22T04:01:26;10.13;;;7.12;;
77938;SDS011;67136;47.546;21.630;2023-07-22T04:04:29;11.73;;;7.35;;
77938;SDS011;67136;47.546;21.630;2023-07-22T04:07:31;11.45;;;7.87;;
77938;SDS011;67136;47.546;21.630;2023-07-22T04:10:35;11.17;;;7.80;;
77938;SDS011;67136;47.546;21.630;2023-07-22T04:13:37;11.05;;;7.90;;
77938;SDS011;67136;47.546;21.630;2023-07-22T04:16:41;12.48;;;7.65;;
77938;SDS011;67136;47.546;21.630;2023-07-22T04:19:43;12.25;;;7.47;;
77938;SDS011;67136;47.546;21.630;2023-07-22T04:22:47;11.32;;;7.57;;
77938;SDS011;67136;47.546;21.630;2023-07-22T04:25:49;10.63;;;6.67;;
77938;SDS011;67136;47.546;21.630;2023-07-22T04:28:52;8.38;;;6.55;;
77938;SDS011;67136;47.546;21.630;2023-07-22T04:31:58;18.27;;;7.80;;
77938;SDS011;67136;47.546;21.630;2023-07-22T04:35:04;7.72;;;6.35;;
77938;SDS011;67136;47.546;21.630;2023-07-22T04:38:12;11.63;;;6.85;;
77938;SDS011;67136;47.546;21.630;2023-07-22T04:41:15;9.60;;;7.47;;
77938;SDS011;67136;47.546;21.630;2023-07-22T04:44:18;11.20;;;8.10;;
77938;SDS011;67136;47.546;21.630;2023-07-22T04:47:22;9.70;;;7.10;;
77938;SDS011;67136;47.546;21.630;2023-07-22T04:50:25;10.60;;;7.55;;
77938;SDS011;67136;47.546;21.630;2023-07-22T04:53:27;9.38;;;7.15;;
77938;SDS011;67136;47.546;21.630;2023-07-22T04:56:31;11.77;;;7.60;;
77938;SDS011;67136;47.546;21.630;2023-07-22T04:59:34;11.52;;;7.57;;
77938;SDS011;67136;47.546;21.630;2023-07-22T05:02:36;13.27;;;7.80;;
77938;SDS011;67136;47.546;21.630;2023-07-22T05:05:39;11.05;;;7.80;;
77938;SDS011;67136;47.546;21.630;2023-07-22T05:08:42;11.23;;;8.93;;
77938;SDS011;67136;47.546;21.630;2023-07-22T05:11:45;12.40;;;7.97;;
77938;SDS011;67136;47.546;21.630;2023-07-22T05:14:48;11.60;;;7.90;;
77938;SDS011;67136;47.546;21.630;2023-07-22T05:17:51;10.15;;;7.90;;
77938;SDS011;67136;47.546;21.630;2023-07-22T05:20:54;11.50;;;7.65;;
77938;SDS011;67136;47.546;21.630;2023-07-22T05:23:59;9.88;;;6.87;;
77938;SDS011;67136;47.546;21.630;2023-07-22T05:27:02;10.80;;;7.60;;
77938;SDS011;67136;47.546;21.630;2023-07-22T05:30:12;9.65;;;7.53;;
77938;SDS011;67136;47.546;21.630;2023-07-22T05:33:34;14.90;;;7.97;;
77938;SDS011;67136;47.546;21.630;2023-07-22T05:36:37;9.65;;;7.78;;
77938;SDS011;67136;47.546;21.630;2023-07-22T05:39:39;10.13;;;8.02;;
77938;SDS011;67136;47.546;21.630;2023-07-22T05:42:42;9.70;;;7.47;;
77938;SDS011;67136;47.546;21.630;2023-07-22T05:45:45;9.63;;;7.55;;
77938;SDS011;67136;47.546;21.630;2023-07-22T05:48:48;10.23;;;7.50;;
77938;SDS011;67136;47.546;21.630;2023-07-22T05:51:50;9.00;;;6.20;;
77938;SDS011;67136;47.546;21.630;2023-07-22T05:54:53;10.32;;;7.55;;
77938;SDS011;67136;47.546;21.630;2023-07-22T05:57:56;11.67;;;7.43;;
77938;SDS011;67136;47.546;21.630;2023-07-22T06:00:59;11.68;;;7.35;;
77938;SDS011;67136;47.546;21.630;2023-07-22T06:04:02;9.15;;;7.28;;
77938;SDS011;67136;47.546;21.630;2023-07-22T06:07:05;6.85;;;5.28;;
77938;SDS011;67136;47.546;21.630;2023-07-22T06:10:08;8.13;;;5.43;;
77938;SDS011;67136;47.546;21.630;2023-07-22T06:13:11;10.40;;;5.30;;
77938;SDS011;67136;47.546;21.630;2023-07-22T06:16:14;6.35;;;5.22;;
77938;SDS011;67136;47.546;21.630;2023-07-22T06:19:17;7.12;;;4.82;;
77938;SDS011;67136;47.546;21.630;2023-07-22T06:22:20;7.87;;;6.05;;
77938;SDS011;67136;47.546;21.630;2023-07-22T06:25:23;9.10;;;5.20;;
77938;SDS011;67136;47.546;21.630;2023-07-22T06:28:26;7.43;;;5.43;;
77938;SDS011;67136;47.546;21.630;2023-07-22T06:31:28;7.28;;;5.05;;
77938;SDS011;67136;47.546;21.630;2023-07-22T06:34:35;8.05;;;5.53;;
77938;SDS011;67136;47.546;21.630;2023-07-22T06:37:38;6.85;;;5.07;;
77938;SDS011;67136;47.546;21.630;2023-07-22T06:40:44;7.05;;;5.35;;
77938;SDS011;67136;47.546;21.630;2023-07-22T06:43:46;8.70;;;4.37;;
77938;SDS011;67136;47.546;21.630;2023-07-22T06:46:49;4.75;;;4.30;;
77938;SDS011;67136;47.546;21.630;2023-07-22T06:49:52;6.78;;;4.07;;
77938;SDS011;67136;47.546;21.630;2023-07-22T06:52:55;7.12;;;4.47;;
77938;SDS011;67136;47.546;21.630;2023-07-22T06:55:57;6.78;;;4.22;;
77938;SDS011;67136;47.546;21.630;2023-07-22T06:59:00;8.67;;;4.80;;
77938;SDS011;67136;47.546;21.630;2023-07-22T07:02:02;5.55;;;4.43;;
77938;SDS011;67136;47.546;21.630;2023-07-22T07:05:08;6.87;;;4.60;;
77938;SDS011;67136;47.546;21.630;2023-07-22T07:08:10;6.53;;;4.03;;
77938;SDS011;67136;47.546;21.630;2023-07-22T07:11:14;8.10;;;4.45;;
77938;SDS011;67136;47.546;21.630;2023-07-22T07:14:17;5.33;;;4.00;;
77938;SDS011;67136;47.546;21.630;2023-07-22T07:17:20;4.47;;;3.37;;
77938;SDS011;67136;47.546;21.630;2023-07-22T07:20:23;5.22;;;3.60;;
77938;SDS011;67136;47.546;21.630;2023-07-22T07:23:26;5.45;;;4.03;;
77938;SDS011;67136;47.546;21.630;2023-07-22T07:26:28;5.37;;;3.50;;
77938;SDS011;67136;47.546;21.630;2023-07-22T07:29:31;5.43;;;3.00;;
77938;SDS011;67136;47.546;21.630;2023-07-22T07:32:53;4.57;;;3.70;;
77938;SDS011;67136;47.546;21.630;2023-07-22T07:35:56;4.97;;;3.35;;
77938;SDS011;67136;47.546;21.630;2023-07-22T07:38:59;4.65;;;3.20;;
77938;SDS011;67136;47.546;21.630;2023-07-22T07:42:02;6.32;;;3.30;;
77938;SDS011;67136;47.546;21.630;2023-07-22T07:45:05;4.30;;;3.33;;
77938;SDS011;67136;47.546;21.630;2023-07-22T07:48:09;4.90;;;3.00;;
77938;SDS011;67136;47.546;21.630;2023-07-22T07:51:13;5.40;;;3.50;;
77938;SDS011;67136;47.546;21.630;2023-07-22T07:54:17;4.70;;;3.08;;
77938;SDS011;67136;47.546;21.630;2023-07-22T07:57:20;4.78;;;3.20;;
77938;SDS011;67136;47.546;21.630;2023-07-22T08:00:22;3.37;;;2.97;;
77938;SDS011;67136;47.546;21.630;2023-07-22T08:03:25;4.50;;;3.22;;
77938;SDS011;67136;47.546;21.630;2023-07-22T08:06:28;5.45;;;3.10;;
77938;SDS011;67136;47.546;21.630;2023-07-22T08:09:31;4.07;;;2.95;;
77938;SDS011;67136;47.546;21.630;2023-07-22T08:12:33;3.92;;;2.97;;
77938;SDS011;67136;47.546;21.630;2023-07-22T08:15:36;8.13;;;3.30;;
77938;SDS011;67136;47.546;21.630;2023-07-22T08:18:40;4.05;;;3.15;;
77938;SDS011;67136;47.546;21.630;2023-07-22T08:21:43;6.95;;;2.70;;
77938;SDS011;67136;47.546;21.630;2023-07-22T08:24:46;3.83;;;2.70;;
77938;SDS011;67136;47.546;21.630;2023-07-22T08:27:51;4.15;;;3.30;;
77938;SDS011;67136;47.546;21.630;2023-07-22T08:30:54;4.00;;;3.27;;
77938;SDS011;67136;47.546;21.630;2023-07-22T08:33:58;5.55;;;3.15;;
77938;SDS011;67136;47.546;21.630;2023-07-22T08:37:00;4.22;;;2.87;;
77938;SDS011;67136;47.546;21.630;2023-07-22T08:40:03;5.10;;;2.90;;
77938;SDS011;67136;47.546;21.630;2023-07-22T08:43:08;5.75;;;3.05;;
77938;SDS011;67136;47.546;21.630;2023-07-22T08:46:12;4.53;;;2.70;;
77938;SDS011;67136;47.546;21.630;2023-07-22T08:49:18;4.30;;;2.85;;
77938;SDS011;67136;47.546;21.630;2023-07-22T08:52:22;5.00;;;2.62;;
77938;SDS011;67136;47.546;21.630;2023-07-22T08:55:25;4.32;;;2.58;;
77938;SDS011;67136;47.546;21.630;2023-07-22T08:58:28;6.10;;;2.67;;
77938;SDS011;67136;47.546;21.630;2023-07-22T09:01:32;3.53;;;2.47;;
77938;SDS011;67136;47.546;21.630;2023-07-22T09:04:37;3.53;;;2.50;;
77938;SDS011;67136;47.546;21.630;2023-07-22T09:07:41;3.90;;;2.65;;
77938;SDS011;67136;47.546;21.630;2023-07-22T09:10:44;3.35;;;2.60;;
77938;SDS011;67136;47.546;21.630;2023-07-22T09:13:47;3.87;;;2.58;;
77938;SDS011;67136;47.546;21.630;2023-07-22T09:16:54;4.20;;;2.70;;
77938;SDS011;67136;47.546;21.630;2023-07-22T09:19:57;3.60;;;2.80;;
77938;SDS011;67136;47.546;21.630;2023-07-22T09:23:00;3.42;;;2.62;;
77938;SDS011;67136;47.546;21.630;2023-07-22T09:26:17;4.37;;;2.90;;
77938;SDS011;67136;47.546;21.630;2023-07-22T09:29:36;3.62;;;2.70;;
77938;SDS011;67136;47.546;21.630;2023-07-22T09:32:40;3.33;;;2.63;;
77938;SDS011;67136;47.546;21.630;2023-07-22T09:35:46;7.55;;;2.47;;
77938;SDS011;67136;47.546;21.630;2023-07-22T09:38:58;3.05;;;2.62;;
77938;SDS011;67136;47.546;21.630;2023-07-22T09:42:03;3.53;;;2.60;;
77938;SDS011;67136;47.546;21.630;2023-07-22T09:45:07;3.75;;;2.60;;
77938;SDS011;67136;47.546;21.630;2023-07-22T09:48:10;4.73;;;2.40;;
77938;SDS011;67136;47.546;21.630;2023-07-22T09:51:16;4.18;;;2.62;;
77938;SDS011;67136;47.546;21.630;2023-07-22T09:54:19;5.10;;;2.55;;
77938;SDS011;67136;47.546;21.630;2023-07-22T09:57:22;3.50;;;2.60;;
77938;SDS011;67136;47.546;21.630;2023-07-22T10:00:29;4.45;;;2.97;;
77938;SDS011;67136;47.546;21.630;2023-07-22T10:03:35;4.07;;;2.87;;
77938;SDS011;67136;47.546;21.630;2023-07-22T10:06:41;4.12;;;2.72;;
77938;SDS011;67136;47.546;21.630;2023-07-22T10:09:45;3.33;;;2.60;;
77938;SDS011;67136;47.546;21.630;2023-07-22T10:12:49;4.75;;;2.92;;
77938;SDS011;67136;47.546;21.630;2023-07-22T10:15:51;3.75;;;2.78;;
77938;SDS011;67136;47.546;21.630;2023-07-22T10:18:55;5.43;;;2.63;;
77938;SDS011;67136;47.546;21.630;2023-07-22T10:21:59;3.40;;;2.72;;
77938;SDS011;67136;47.546;21.630;2023-07-22T10:25:06;3.17;;;2.70;;
77938;SDS011;67136;47.546;21.630;2023-07-22T10:28:10;3.67;;;2.80;;
77938;SDS011;67136;47.546;21.630;2023-07-22T10:31:14;5.68;;;2.80;;
77938;SDS011;67136;47.546;21.630;2023-07-22T10:34:22;4.83;;;2.90;;
77938;SDS011;67136;47.546;21.630;2023-07-22T10:37:29;4.35;;;2.50;;
77938;SDS011;67136;47.546;21.630;2023-07-22T10:40:55;3.72;;;2.95;;
77938;SDS011;67136;47.546;21.630;2023-07-22T10:43:58;6.37;;;3.00;;
77938;SDS011;67136;47.546;21.630;2023-07-22T10:47:03;6.40;;;3.08;;
77938;SDS011;67136;47.546;21.630;2023-07-22T10:50:07;4.80;;;2.90;;
77938;SDS011;67136;47.546;21.630;2023-07-22T10:53:30;4.97;;;2.50;;
77938;SDS011;67136;47.546;21.630;2023-07-22T10:56:33;3.78;;;2.92;;
77938;SDS011;67136;47.546;21.630;2023-07-22T10:59:36;4.70;;;2.90;;
77938;SDS011;67136;47.546;21.630;2023-07-22T11:02:38;4.40;;;2.60;;
77938;SDS011;67136;47.546;21.630;2023-07-22T11:05:47;5.30;;;2.70;;
77938;SDS011;67136;47.546;21.630;2023-07-22T11:08:53;3.33;;;2.78;;
77938;SDS011;67136;47.546;21.630;2023-07-22T11:11:57;3.97;;;2.70;;
77938;SDS011;67136;47.546;21.630;2023-07-22T11:15:04;4.18;;;2.80;;
77938;SDS011;67136;47.546;21.630;2023-07-22T11:18:08;4.15;;;2.85;;
77938;SDS011;67136;47.546;21.630;2023-07-22T11:21:12;5.70;;;2.80;;
77938;SDS011;67136;47.546;21.630;2023-07-22T11:24:15;4.47;;;2.65;;
77938;SDS011;67136;47.546;21.630;2023-07-22T11:27:18;4.60;;;2.45;;
77938;SDS011;67136;47.546;21.630;2023-07-22T11:30:23;3.55;;;2.45;;
77938;SDS011;67136;47.546;21.630;2023-07-22T11:33:36;5.05;;;2.80;;
77938;SDS011;67136;47.546;21.630;2023-07-22T11:36:41;3.07;;;2.67;;
77938;SDS011;67136;47.546;21.630;2023-07-22T11:39:45;4.05;;;2.83;;
77938;SDS011;67136;47.546;21.630;2023-07-22T11:42:48;4.03;;;2.47;;
77938;SDS011;67136;47.546;21.630;2023-07-22T11:45:53;6.20;;;2.75;;
77938;SDS011;67136;47.546;21.630;2023-07-22T11:48:59;4.20;;;2.50;;
77938;SDS011;67136;47.546;21.630;2023-07-22T11:52:06;3.20;;;2.30;;
77938;SDS011;67136;47.546;21.630;2023-07-22T11:55:11;5.57;;;2.55;;
77938;SDS011;67136;47.546;21.630;2023-07-22T11:58:27;3.67;;;2.60;;
77938;SDS011;67136;47.546;21.630;2023-07-22T12:01:33;2.50;;;2.30;;
77938;SDS011;67136;47.546;21.630;2023-07-22T12:04:37;2.60;;;2.15;;
77938;SDS011;67136;47.546;21.630;2023-07-22T12:07:40;3.83;;;2.30;;
77938;SDS011;67136;47.546;21.630;2023-07-22T12:10:44;3.97;;;2.50;;
77938;SDS011;67136;47.546;21.630;2023-07-22T12:13:46;3.55;;;2.40;;
77938;SDS011;67136;47.546;21.630;2023-07-22T12:16:55;2.97;;;2.50;;
77938;SDS011;67136;47.546;21.630;2023-07-22T12:20:04;3.72;;;2.53;;
77938;SDS011;67136;47.546;21.630;2023-07-22T12:23:08;3.20;;;2.37;;
77938;SDS011;67136;47.546;21.630;2023-07-22T12:26:11;3.58;;;2.35;;
77938;SDS011;67136;47.546;21.630;2023-07-22T12:29:14;4.28;;;2.12;;
77938;SDS011;67136;47.546;21.630;2023-07-22T12:32:17;4.93;;;2.40;;
77938;SDS011;67136;47.546;21.630;2023-07-22T12:35:19;4.32;;;2.40;;
77938;SDS011;67136;47.546;21.630;2023-07-22T12:38:22;3.93;;;2.53;;
77938;SDS011;67136;47.546;21.630;2023-07-22T12:41:25;3.00;;;2.40;;
77938;SDS011;67136;47.546;21.630;2023-07-22T12:44:28;3.08;;;2.37;;
77938;SDS011;67136;47.546;21.630;2023-07-22T12:47:31;2.87;;;2.35;;
77938;SDS011;67136;47.546;21.630;2023-07-22T12:50:33;3.10;;;2.50;;
77938;SDS011;67136;47.546;21.630;2023-07-22T12:53:37;3.30;;;2.30;;
77938;SDS011;67136;47.546;21.630;2023-07-22T12:56:39;4.47;;;2.28;;
77938;SDS011;67136;47.546;21.630;2023-07-22T12:59:43;2.78;;;2.30;;
77938;SDS011;67136;47.546;21.630;2023-07-22T13:02:49;4.47;;;2.28;;
77938;SDS011;67136;47.546;21.630;2023-07-22T13:05:52;3.45;;;2.12;;
77938;SDS011;67136;47.546;21.630;2023-07-22T13:08:55;3.50;;;2.63;;
77938;SDS011;67136;47.546;21.630;2023-07-22T13:11:57;4.15;;;2.22;;
77938;SDS011;67136;47.546;21.630;2023-07-22T13:15:04;4.53;;;2.40;;
77938;SDS011;67136;47.546;21.630;2023-07-22T13:18:08;5.32;;;2.20;;
77938;SDS011;67136;47.546;21.630;2023-07-22T13:21:10;5.05;;;2.60;;
77938;SDS011;67136;47.546;21.630;2023-07-22T13:24:13;3.40;;;2.47;;
77938;SDS011;67136;47.546;21.630;2023-07-22T13:27:16;2.87;;;2.20;;
77938;SDS011;67136;47.546;21.630;2023-07-22T13:30:19;3.83;;;2.70;;
77938;SDS011;67136;47.546;21.630;2023-07-22T13:33:23;3.78;;;2.17;;
77938;SDS011;67136;47.546;21.630;2023-07-22T13:36:25;4.45;;;2.42;;
77938;SDS011;67136;47.546;21.630;2023-07-22T13:39:28;2.47;;;2.10;;
77938;SDS011;67136;47.546;21.630;2023-07-22T13:42:31;2.90;;;2.17;;
77938;SDS011;67136;47.546;21.630;2023-07-22T13:45:34;2.87;;;2.05;;
77938;SDS011;67136;47.546;21.630;2023-07-22T13:48:37;4.18;;;2.10;;
77938;SDS011;67136;47.546;21.630;2023-07-22T13:51:40;4.10;;;2.75;;
77938;SDS011;67136;47.546;21.630;2023-07-22T13:54:44;5.90;;;2.63;;
77938;SDS011;67136;47.546;21.630;2023-07-22T13:57:47;2.85;;;2.37;;
77938;SDS011;67136;47.546;21.630;2023-07-22T14:00:50;3.92;;;2.80;;
77938;SDS011;67136;47.546;21.630;2023-07-22T14:03:53;6.22;;;2.67;;
77938;SDS011;67136;47.546;21.630;2023-07-22T14:06:55;4.30;;;2.67;;
77938;SDS011;67136;47.546;21.630;2023-07-22T14:09:59;4.43;;;2.67;;
77938;SDS011;67136;47.546;21.630;2023-07-22T14:13:02;5.25;;;2.70;;
77938;SDS011;67136;47.546;21.630;2023-07-22T14:16:05;2.72;;;2.45;;
77938;SDS011;67136;47.546;21.630;2023-07-22T14:19:23;5.97;;;2.72;;
77938;SDS011;67136;47.546;21.630;2023-07-22T14:22:27;3.35;;;2.40;;
77938;SDS011;67136;47.546;21.630;2023-07-22T14:25:29;3.30;;;2.47;;
77938;SDS011;67136;47.546;21.630;2023-07-22T14:28:32;2.97;;;2.50;;
77938;SDS011;67136;47.546;21.630;2023-07-22T14:31:34;4.57;;;2.60;;
77938;SDS011;67136;47.546;21.630;2023-07-22T14:34:37;4.30;;;2.28;;
77938;SDS011;67136;47.546;21.630;2023-07-22T14:37:40;3.65;;;2.33;;
77938;SDS011;67136;47.546;21.630;2023-07-22T14:40:43;3.10;;;2.17;;
77938;SDS011;67136;47.546;21.630;2023-07-22T14:43:45;4.45;;;2.25;;
77938;SDS011;67136;47.546;21.630;2023-07-22T14:46:48;3.12;;;2.40;;
77938;SDS011;67136;47.546;21.630;2023-07-22T14:49:51;3.58;;;2.05;;
77938;SDS011;67136;47.546;21.630;2023-07-22T14:52:55;3.42;;;2.25;;
77938;SDS011;67136;47.546;21.630;2023-07-22T14:55:57;3.70;;;2.23;;
77938;SDS011;67136;47.546;21.630;2023-07-22T14:59:00;5.00;;;2.45;;
77938;SDS011;67136;47.546;21.630;2023-07-22T15:02:02;4.10;;;2.40;;
77938;SDS011;67136;47.546;21.630;2023-07-22T15:05:07;4.05;;;2.70;;
77938;SDS011;67136;47.546;21.630;2023-07-22T15:08:10;4.32;;;2.33;;
77938;SDS011;67136;47.546;21.630;2023-07-22T15:11:13;4.03;;;2.47;;
77938;SDS011;67136;47.546;21.630;2023-07-22T15:14:16;3.10;;;2.45;;
77938;SDS011;67136;47.546;21.630;2023-07-22T15:17:18;4.00;;;2.33;;
77938;SDS011;67136;47.546;21.630;2023-07-22T15:20:24;4.85;;;3.10;;
77938;SDS011;67136;47.546;21.630;2023-07-22T15:23:27;3.62;;;2.25;;
77938;SDS011;67136;47.546;21.630;2023-07-22T15:26:30;3.90;;;2.47;;
77938;SDS011;67136;47.546;21.630;2023-07-22T15:29:32;4.20;;;2.80;;
77938;SDS011;67136;47.546;21.630;2023-07-22T15:32:35;3.25;;;2.70;;
77938;SDS011;67136;47.546;21.630;2023-07-22T15:35:38;9.80;;;2.80;;
77938;SDS011;67136;47.546;21.630;2023-07-22T15:38:41;4.35;;;3.25;;
77938;SDS011;67136;47.546;21.630;2023-07-22T15:41:44;3.97;;;2.70;;
77938;SDS011;67136;47.546;21.630;2023-07-22T15:44:48;6.35;;;2.70;;
77938;SDS011;67136;47.546;21.630;2023-07-22T15:47:53;2.90;;;2.40;;
77938;SDS011;67136;47.546;21.630;2023-07-22T15:50:56;7.35;;;2.60;;
77938;SDS011;67136;47.546;21.630;2023-07-22T15:53:59;3.15;;;2.60;;
77938;SDS011;67136;47.546;21.630;2023-07-22T15:57:01;4.63;;;2.43;;
77938;SDS011;67136;47.546;21.630;2023-07-22T16:00:04;6.22;;;2.90;;
77938;SDS011;67136;47.546;21.630;2023-07-22T16:03:13;3.45;;;2.70;;
77938;SDS011;67136;47.546;21.630;2023-07-22T16:06:17;4.30;;;2.70;;
77938;SDS011;67136;47.546;21.630;2023-07-22T16:09:34;4.75;;;2.58;;
77938;SDS011;67136;47.546;21.630;2023-07-22T16:12:37;3.33;;;2.67;;
77938;SDS011;67136;47.546;21.630;2023-07-22T16:15:40;4.47;;;2.42;;
77938;SDS011;67136;47.546;21.630;2023-07-22T16:18:44;4.62;;;2.50;;
77938;SDS011;67136;47.546;21.630;2023-07-22T16:21:46;3.15;;;2.35;;
77938;SDS011;67136;47.546;21.630;2023-07-22T16:24:50;3.12;;;2.37;;
77938;SDS011;67136;47.546;21.630;2023-07-22T16:27:53;3.07;;;2.43;;
77938;SDS011;67136;47.546;21.630;2023-07-22T16:30:55;4.28;;;2.50;;
77938;SDS011;67136;47.546;21.630;2023-07-22T16:34:01;4.45;;;2.75;;
77938;SDS011;67136;47.546;21.630;2023-07-22T16:37:04;4.85;;;2.55;;
77938;SDS011;67136;47.546;21.630;2023-07-22T16:40:08;3.37;;;2.33;;
77938;SDS011;67136;47.546;21.630;2023-07-22T16:43:13;6.00;;;2.33;;
77938;SDS011;67136;47.546;21.630;2023-07-22T16:46:16;5.28;;;2.50;;
77938;SDS011;67136;47.546;21.630;2023-07-22T16:49:19;3.08;;;2.42;;
77938;SDS011;67136;47.546;21.630;2023-07-22T16:52:25;3.42;;;2.10;;
77938;SDS011;67136;47.546;21.630;2023-07-22T16:55:29;4.75;;;2.10;;
77938;SDS011;67136;47.546;21.630;2023-07-22T16:58:32;4.47;;;2.00;;
77938;SDS011;67136;47.546;21.630;2023-07-22T17:01:34;4.07;;;2.40;;
77938;SDS011;67136;47.546;21.630;2023-07-22T17:04:37;5.37;;;2.25;;
77938;SDS011;67136;47.546;21.630;2023-07-22T17:07:40;6.75;;;2.45;;
77938;SDS011;67136;47.546;21.630;2023-07-22T17:10:48;3.97;;;2.00;;
77938;SDS011;67136;47.546;21.630;2023-07-22T17:13:51;2.63;;;1.60;;
77938;SDS011;67136;47.546;21.630;2023-07-22T17:16:54;7.03;;;1.95;;
77938;SDS011;67136;47.546;21.630;2023-07-22T17:19:56;5.18;;;2.00;;
77938;SDS011;67136;47.546;21.630;2023-07-22T17:22:59;3.12;;;2.08;;
77938;SDS011;67136;47.546;21.630;2023-07-22T17:26:02;2.33;;;1.90;;
77938;SDS011;67136;47.546;21.630;2023-07-22T17:29:08;4.50;;;1.93;;
77938;SDS011;67136;47.546;21.630;2023-07-22T17:32:10;3.67;;;2.30;;
77938;SDS011;67136;47.546;21.630;2023-07-22T17:35:16;2.58;;;2.05;;
77938;SDS011;67136;47.546;21.630;2023-07-22T17:38:19;4.53;;;2.08;;
77938;SDS011;67136;47.546;21.630;2023-07-22T17:41:22;4.32;;;2.20;;
77938;SDS011;67136;47.546;21.630;2023-07-22T17:44:28;3.20;;;2.20;;
77938;SDS011;67136;47.546;21.630;2023-07-22T17:47:31;2.80;;;2.12;;
77938;SDS011;67136;47.546;21.630;2023-07-22T17:50:34;3.03;;;1.98;;
77938;SDS011;67136;47.546;21.630;2023-07-22T17:53:37;5.55;;;2.10;;
77938;SDS011;67136;47.546;21.630;2023-07-22T17:56:39;3.97;;;1.75;;
77938;SDS011;67136;47.546;21.630;2023-07-22T17:59:42;3.17;;;1.90;;
77938;SDS011;67136;47.546;21.630;2023-07-22T18:02:44;5.47;;;1.70;;
77938;SDS011;67136;47.546;21.630;2023-07-22T18:05:48;2.85;;;2.00;;
77938;SDS011;67136;47.546;21.630;2023-07-22T18:08:51;4.65;;;2.20;;
77938;SDS011;67136;47.546;21.630;2023-07-22T18:11:54;5.60;;;2.40;;